Tonsnes — LLAD — position and weather

sailwx.info

Track history (hours):
 
Tides and Currents Weather Stations Pressure Air Temp Water Temp Dewpoint Dewpoint Depression Visibility Wind Speed Wind Dir Waves Ship Positions

Tonsnes

Last reported at 2017-Dec-16 09:00 UTC. Time now 2017-Dec-16 09:21 UTC.
Position N 70°51' E 022°10'.

Length 50 m; draft 7.5 m.

Type: Fishing. MMSI: 259666000.

Date/timePositionNaut miles runAvg speedWind from/ knotsBaromVisibWave heightAir tempDewpointWater temp
2017-Dec-16 09:00N 70°51' E 022°10'2 4.3
2017-Dec-16 08:30N 70°52' E 022°16'2 3.4
2017-Dec-16 08:00N 70°53' E 022°20'2 3.9
2017-Dec-16 07:30N 70°53' E 022°14'1 2.2
2017-Dec-16 06:59N 70°53' E 022°11'2 4.1
2017-Dec-16 06:29N 70°51' E 022°09'1 1.1
2017-Dec-16 06:00N 70°51' E 022°08'2 4.4
2017-Dec-16 05:30N 70°53' E 022°10'2 4.1
2017-Dec-16 04:59N 70°55' E 022°11'1 1.6
2017-Dec-16 04:30N 70°56' E 022°09'1 2.7
2017-Dec-16 04:00N 70°55' E 022°13'1 1.8
2017-Dec-16 03:30N 70°54' E 022°15'2 4.0
2017-Dec-16 03:00N 70°55' E 022°21'2 4.0
2017-Dec-16 02:30N 70°54' E 022°15'2 4.1
2017-Dec-16 02:00N 70°53' E 022°10'2 4.2
2017-Dec-16 01:30N 70°51' E 022°08'1 2.6
2017-Dec-16 01:00N 70°52' E 022°10'2 4.2
2017-Dec-16 00:30N 70°54' E 022°12'2 4.1
2017-Dec-16 00:00N 70°55' E 022°17'1 2.5
2017-Dec-15 23:30N 70°56' E 022°15'2 4.0
2017-Dec-15 23:00N 70°54' E 022°12'2 4.4
2017-Dec-15 22:30N 70°52' E 022°10'2 3.5
2017-Dec-15 22:00N 70°53' E 022°14'2 3.4
2017-Dec-15 21:30N 70°53' E 022°19'2 3.7
2017-Dec-15 21:00N 70°51' E 022°15'2 4.1
2017-Dec-15 20:30N 70°50' E 022°10'2 3.4
2017-Dec-15 19:59N 70°52' E 022°10'2 4.0
2017-Dec-15 19:30N 70°54' E 022°12'2 4.6
2017-Dec-15 19:00N 70°56' E 022°16'2 4.1
2017-Dec-15 18:30N 70°54' E 022°11'1 1.4
2017-Dec-15 18:00N 70°54' E 022°13'2 4.1
2017-Dec-15 17:30N 70°53' E 022°19'2 3.5
2017-Dec-15 17:00N 70°52' E 022°16'2 4.0
2017-Dec-15 16:30N 70°51' E 022°11'1 2.4
2017-Dec-15 15:59N 70°51' E 022°08'2 4.9
2017-Dec-15 15:30N 70°53' E 022°11'2 4.0
2017-Dec-15 15:00N 70°54' E 022°16'2 3.6
2017-Dec-15 14:30N 70°55' E 022°21'2 4.2
2017-Dec-15 14:00N 70°54' E 022°15'2 4.4
2017-Dec-15 13:30N 70°53' E 022°10'2 4.6
2017-Dec-15 13:00N 70°50' E 022°09'2 5.0
2017-Dec-15 12:30N 70°53' E 022°10'1 1.7
2017-Dec-15 12:00N 70°53' E 022°12'2 3.0
2017-Dec-15 11:30N 70°54' E 022°16'1 1.8
2017-Dec-15 11:00N 70°55' E 022°17'2 4.9
2017-Dec-15 10:30N 70°57' E 022°23'1 1.3
2017-Dec-15 10:00N 70°57' E 022°24'3 5.2
2017-Dec-15 09:30N 70°55' E 022°18'3 5.0
2017-Dec-15 09:00N 70°54' E 022°12'2 4.7
2017-Dec-15 08:30N 70°52' E 022°10'1 2.4
2017-Dec-15 08:00N 70°50' E 022°11'2 4.4
2017-Dec-15 07:30N 70°52' E 022°16'2 3.5
2017-Dec-15 07:00N 70°53' E 022°18'2 3.8
2017-Dec-15 06:30N 70°53' E 022°12'1 1.1
2017-Dec-15 06:00N 70°53' E 022°13'2 4.4
2017-Dec-15 05:30N 70°55' E 022°17'2 3.1
2017-Dec-15 05:01N 70°56' E 022°22'2 3.2
2017-Dec-15 04:30N 70°54' E 022°19'2 4.4
2017-Dec-15 04:00N 70°54' E 022°13'2 1.6
2017-Dec-15 02:30N 70°51' E 022°14'2 1.4
2017-Dec-15 01:00N 70°53' E 022°14'2 4.2
2017-Dec-15 00:30N 70°53' E 022°20'6310.4
2017-Dec-14 18:30N 70°56' E 025°31'611.8
2017-Dec-14 18:00N 70°56' E 025°49'612.0
2017-Dec-14 17:30N 70°58' E 026°07'611.7
2017-Dec-14 17:00N 71°00' E 026°24'611.1
2017-Dec-14 16:30N 71°02' E 026°39'510.3
2017-Dec-14 16:00N 71°05' E 026°52'1010.3
2017-Dec-14 15:00N 71°09' E 027°22'5 9.8
2017-Dec-14 14:30N 71°11' E 027°36'5 9.6
2017-Dec-14 14:00N 71°12' E 027°51'4 7.4
2017-Dec-14 13:30N 71°13' E 028°01'2 4.3
2017-Dec-14 13:00N 71°14' E 027°55'2 3.4
2017-Dec-14 12:30N 71°14' E 027°50'1 2.9
2017-Dec-14 12:00N 71°13' E 027°54'2 3.2
2017-Dec-14 11:29N 71°13' E 027°59'2 3.3
2017-Dec-14 10:59N 71°13' E 028°04'1 3.0
2017-Dec-14 10:30N 71°12' E 028°09'3 6.0
2017-Dec-14 10:00N 71°12' E 028°18'510.4
2017-Dec-14 09:30N 71°10' E 028°33'4 8.8
2017-Dec-14 09:00N 71°09' E 028°46'1 2.6
2017-Dec-14 08:29N 71°08' E 028°50'2 3.9
2017-Dec-14 08:00N 71°08' E 028°55'2 3.9
2017-Dec-14 07:30N 71°06' E 028°59'2 3.9
2017-Dec-14 07:00N 71°07' E 028°53'2 3.9
2017-Dec-14 06:30N 71°07' E 028°47'2 3.9
2017-Dec-14 06:00N 71°07' E 028°41'2 3.9
2017-Dec-14 05:29N 71°08' E 028°36'2 3.9
2017-Dec-14 05:00N 71°09' E 028°31'1 2.3
2017-Dec-14 04:30N 71°09' E 028°34'2 4.0
2017-Dec-14 04:00N 71°08' E 028°39'2 4.0
2017-Dec-14 03:30N 71°08' E 028°45'2 4.0
2017-Dec-14 03:00N 71°07' E 028°51'2 3.9
2017-Dec-14 02:29N 71°07' E 028°57'2 4.5
2017-Dec-14 02:00N 71°05' E 029°03'611.4
2017-Dec-14 01:30N 71°02' E 029°17'611.3
2017-Dec-14 01:00N 70°59' E 029°31'611.9
2017-Dec-14 00:30N 70°55' E 029°45'612.5
2017-Dec-14 00:00N 70°51' E 029°60'712.6
2017-Dec-13 23:29N 70°47' E 030°15'612.6
2017-Dec-13 23:00N 70°43' E 030°29'5 8.8
2017-Dec-13 22:29N 70°41' E 030°41'1 2.4
2017-Dec-13 21:59N 70°40' E 030°43'2 3.5
2017-Dec-13 21:30N 70°39' E 030°47'2 3.7
2017-Dec-13 21:00N 70°37' E 030°51'2 4.1
2017-Dec-13 20:30N 70°36' E 030°56'2 4.2
2017-Dec-13 20:00N 70°34' E 031°01'2 4.0
2017-Dec-13 19:30N 70°33' E 031°05'2 4.3
2017-Dec-13 19:00N 70°32' E 031°10'2 3.2
2017-Dec-13 18:30N 70°31' E 031°14'2 3.6
2017-Dec-13 18:00N 70°32' E 031°10'2 4.1
2017-Dec-13 17:30N 70°33' E 031°05'2 4.3
2017-Dec-13 17:00N 70°35' E 031°00'2 4.5
2017-Dec-13 16:30N 70°36' E 030°55'0 0.7
2017-Dec-13 16:00N 70°36' E 030°56'3 5.7
2017-Dec-13 15:30N 70°35' E 031°05'2 3.1
2017-Dec-13 15:00N 70°34' E 031°08'2 3.9
2017-Dec-13 14:29N 70°32' E 031°09'2 3.8
2017-Dec-13 13:59N 70°31' E 031°14'1 2.9
2017-Dec-13 13:30N 70°30' E 031°15'2 4.0
2017-Dec-13 13:00N 70°31' E 031°11'2 4.2
2017-Dec-13 12:30N 70°33' E 031°06'2 4.2
2017-Dec-13 12:00N 70°34' E 031°01'2 4.2
2017-Dec-13 11:29N 70°36' E 030°57'2 4.4
2017-Dec-13 10:59N 70°37' E 030°52'2 4.5
2017-Dec-13 10:30N 70°39' E 030°47'2 3.3
2017-Dec-13 09:59N 70°40' E 030°46'611.4
2017-Dec-13 09:30N 70°43' E 031°00'611.8
2017-Dec-13 09:00N 70°47' E 031°14'  
2017-Dec-06 23:39N 69°59' E 017°05'211.7
2017-Dec-06 23:29N 69°57' E 017°05'611.5
2017-Dec-06 22:59N 69°52' E 017°02'611.3
2017-Dec-06 22:30N 69°46' E 016°58'611.5
2017-Dec-06 21:59N 69°41' E 016°55'611.5
2017-Dec-06 21:30N 69°35' E 016°52'611.5
2017-Dec-06 21:00N 69°29' E 016°49'  
Track history (hours):
 
Tides and Currents Weather Stations Pressure Air Temp Water Temp Dewpoint Dewpoint Depression Visibility Wind Speed Wind Dir Waves Ship Positions

Tonsnes

Last reported at 2017-Dec-16 09:00 UTC. Time now 2017-Dec-16 09:21 UTC.
Position N 70°51' E 022°10'.

Length 50 m; draft 7.5 m.

Type: Fishing. MMSI: 259666000.

Date/timePositionNaut miles runAvg speedWind from/ knotsBaromVisibWave heightAir tempDewpointWater temp
2017-Dec-16 09:00N 70°51' E 022°10'2 4.3
2017-Dec-16 08:30N 70°52' E 022°16'2 3.4
2017-Dec-16 08:00N 70°53' E 022°20'2 3.9
2017-Dec-16 07:30N 70°53' E 022°14'1 2.2
2017-Dec-16 06:59N 70°53' E 022°11'2 4.1
2017-Dec-16 06:29N 70°51' E 022°09'1 1.1
2017-Dec-16 06:00N 70°51' E 022°08'2 4.4
2017-Dec-16 05:30N 70°53' E 022°10'2 4.1
2017-Dec-16 04:59N 70°55' E 022°11'1 1.6
2017-Dec-16 04:30N 70°56' E 022°09'1 2.7
2017-Dec-16 04:00N 70°55' E 022°13'1 1.8
2017-Dec-16 03:30N 70°54' E 022°15'2 4.0
2017-Dec-16 03:00N 70°55' E 022°21'2 4.0
2017-Dec-16 02:30N 70°54' E 022°15'2 4.1
2017-Dec-16 02:00N 70°53' E 022°10'2 4.2
2017-Dec-16 01:30N 70°51' E 022°08'1 2.6
2017-Dec-16 01:00N 70°52' E 022°10'2 4.2
2017-Dec-16 00:30N 70°54' E 022°12'2 4.1
2017-Dec-16 00:00N 70°55' E 022°17'1 2.5
2017-Dec-15 23:30N 70°56' E 022°15'2 4.0
2017-Dec-15 23:00N 70°54' E 022°12'2 4.4
2017-Dec-15 22:30N 70°52' E 022°10'2 3.5
2017-Dec-15 22:00N 70°53' E 022°14'2 3.4
2017-Dec-15 21:30N 70°53' E 022°19'2 3.7
2017-Dec-15 21:00N 70°51' E 022°15'2 4.1
2017-Dec-15 20:30N 70°50' E 022°10'2 3.4
2017-Dec-15 19:59N 70°52' E 022°10'2 4.0
2017-Dec-15 19:30N 70°54' E 022°12'2 4.6
2017-Dec-15 19:00N 70°56' E 022°16'2 4.1
2017-Dec-15 18:30N 70°54' E 022°11'1 1.4
2017-Dec-15 18:00N 70°54' E 022°13'2 4.1
2017-Dec-15 17:30N 70°53' E 022°19'2 3.5
2017-Dec-15 17:00N 70°52' E 022°16'2 4.0
2017-Dec-15 16:30N 70°51' E 022°11'1 2.4
2017-Dec-15 15:59N 70°51' E 022°08'2 4.9
2017-Dec-15 15:30N 70°53' E 022°11'2 4.0
2017-Dec-15 15:00N 70°54' E 022°16'2 3.6
2017-Dec-15 14:30N 70°55' E 022°21'2 4.2
2017-Dec-15 14:00N 70°54' E 022°15'2 4.4
2017-Dec-15 13:30N 70°53' E 022°10'2 4.6
2017-Dec-15 13:00N 70°50' E 022°09'2 5.0
2017-Dec-15 12:30N 70°53' E 022°10'1 1.7
2017-Dec-15 12:00N 70°53' E 022°12'2 3.0
2017-Dec-15 11:30N 70°54' E 022°16'1 1.8
2017-Dec-15 11:00N 70°55' E 022°17'2 4.9
2017-Dec-15 10:30N 70°57' E 022°23'1 1.3
2017-Dec-15 10:00N 70°57' E 022°24'3 5.2
2017-Dec-15 09:30N 70°55' E 022°18'3 5.0
2017-Dec-15 09:00N 70°54' E 022°12'2 4.7
2017-Dec-15 08:30N 70°52' E 022°10'1 2.4
2017-Dec-15 08:00N 70°50' E 022°11'2 4.4
2017-Dec-15 07:30N 70°52' E 022°16'2 3.5
2017-Dec-15 07:00N 70°53' E 022°18'2 3.8
2017-Dec-15 06:30N 70°53' E 022°12'1 1.1
2017-Dec-15 06:00N 70°53' E 022°13'2 4.4
2017-Dec-15 05:30N 70°55' E 022°17'2 3.1
2017-Dec-15 05:01N 70°56' E 022°22'2 3.2
2017-Dec-15 04:30N 70°54' E 022°19'2 4.4
2017-Dec-15 04:00N 70°54' E 022°13'2 1.6
2017-Dec-15 02:30N 70°51' E 022°14'2 1.4
2017-Dec-15 01:00N 70°53' E 022°14'2 4.2
2017-Dec-15 00:30N 70°53' E 022°20'6310.4
2017-Dec-14 18:30N 70°56' E 025°31'611.8
2017-Dec-14 18:00N 70°56' E 025°49'612.0
2017-Dec-14 17:30N 70°58' E 026°07'611.7
2017-Dec-14 17:00N 71°00' E 026°24'611.1
2017-Dec-14 16:30N 71°02' E 026°39'510.3
2017-Dec-14 16:00N 71°05' E 026°52'1010.3
2017-Dec-14 15:00N 71°09' E 027°22'5 9.8
2017-Dec-14 14:30N 71°11' E 027°36'5 9.6
2017-Dec-14 14:00N 71°12' E 027°51'4 7.4
2017-Dec-14 13:30N 71°13' E 028°01'2 4.3
2017-Dec-14 13:00N 71°14' E 027°55'2 3.4
2017-Dec-14 12:30N 71°14' E 027°50'1 2.9
2017-Dec-14 12:00N 71°13' E 027°54'2 3.2
2017-Dec-14 11:29N 71°13' E 027°59'2 3.3
2017-Dec-14 10:59N 71°13' E 028°04'1 3.0
2017-Dec-14 10:30N 71°12' E 028°09'3 6.0
2017-Dec-14 10:00N 71°12' E 028°18'510.4
2017-Dec-14 09:30N 71°10' E 028°33'4 8.8
2017-Dec-14 09:00N 71°09' E 028°46'1 2.6
2017-Dec-14 08:29N 71°08' E 028°50'2 3.9
2017-Dec-14 08:00N 71°08' E 028°55'2 3.9
2017-Dec-14 07:30N 71°06' E 028°59'2 3.9
2017-Dec-14 07:00N 71°07' E 028°53'2 3.9
2017-Dec-14 06:30N 71°07' E 028°47'2 3.9
2017-Dec-14 06:00N 71°07' E 028°41'2 3.9
2017-Dec-14 05:29N 71°08' E 028°36'2 3.9
2017-Dec-14 05:00N 71°09' E 028°31'1 2.3
2017-Dec-14 04:30N 71°09' E 028°34'2 4.0
2017-Dec-14 04:00N 71°08' E 028°39'2 4.0
2017-Dec-14 03:30N 71°08' E 028°45'2 4.0
2017-Dec-14 03:00N 71°07' E 028°51'2 3.9
2017-Dec-14 02:29N 71°07' E 028°57'2 4.5
2017-Dec-14 02:00N 71°05' E 029°03'611.4
2017-Dec-14 01:30N 71°02' E 029°17'611.3
2017-Dec-14 01:00N 70°59' E 029°31'611.9
2017-Dec-14 00:30N 70°55' E 029°45'612.5
2017-Dec-14 00:00N 70°51' E 029°60'712.6
2017-Dec-13 23:29N 70°47' E 030°15'612.6
2017-Dec-13 23:00N 70°43' E 030°29'5 8.8
2017-Dec-13 22:29N 70°41' E 030°41'1 2.4
2017-Dec-13 21:59N 70°40' E 030°43'2 3.5
2017-Dec-13 21:30N 70°39' E 030°47'2 3.7
2017-Dec-13 21:00N 70°37' E 030°51'2 4.1
2017-Dec-13 20:30N 70°36' E 030°56'2 4.2
2017-Dec-13 20:00N 70°34' E 031°01'2 4.0
2017-Dec-13 19:30N 70°33' E 031°05'2 4.3
2017-Dec-13 19:00N 70°32' E 031°10'2 3.2
2017-Dec-13 18:30N 70°31' E 031°14'2 3.6
2017-Dec-13 18:00N 70°32' E 031°10'2 4.1
2017-Dec-13 17:30N 70°33' E 031°05'2 4.3
2017-Dec-13 17:00N 70°35' E 031°00'2 4.5
2017-Dec-13 16:30N 70°36' E 030°55'0 0.7
2017-Dec-13 16:00N 70°36' E 030°56'3 5.7
2017-Dec-13 15:30N 70°35' E 031°05'2 3.1
2017-Dec-13 15:00N 70°34' E 031°08'2 3.9
2017-Dec-13 14:29N 70°32' E 031°09'2 3.8
2017-Dec-13 13:59N 70°31' E 031°14'1 2.9
2017-Dec-13 13:30N 70°30' E 031°15'2 4.0
2017-Dec-13 13:00N 70°31' E 031°11'2 4.2
2017-Dec-13 12:30N 70°33' E 031°06'2 4.2
2017-Dec-13 12:00N 70°34' E 031°01'2 4.2
2017-Dec-13 11:29N 70°36' E 030°57'2 4.4
2017-Dec-13 10:59N 70°37' E 030°52'2 4.5
2017-Dec-13 10:30N 70°39' E 030°47'2 3.3
2017-Dec-13 09:59N 70°40' E 030°46'611.4
2017-Dec-13 09:30N 70°43' E 031°00'611.8
2017-Dec-13 09:00N 70°47' E 031°14'  
2017-Dec-06 23:39N 69°59' E 017°05'211.7
2017-Dec-06 23:29N 69°57' E 017°05'611.5
2017-Dec-06 22:59N 69°52' E 017°02'611.3
2017-Dec-06 22:30N 69°46' E 016°58'611.5
2017-Dec-06 21:59N 69°41' E 016°55'611.5
2017-Dec-06 21:30N 69°35' E 016°52'611.5
2017-Dec-06 21:00N 69°29' E 016°49'  

Dump ship's entire track history